Royalton, Vermont
Current Conditions -  °F | °C
As of 8:00 PM on Tuesday 27 Jan 2015 (Local Time) from KLEB Reporting Station
Light Snow Light Snow  
Wind Chill: -5°   Ceiling: 5000
Heat Index: 11°   Visibility: 6mi
Dew Point:   Wind: 15mph
Humidity: 67%   Direction: 340°NNW
Pressure: 29.76"   Gusts: 23mph
Location:  43.7658°N, 72.5431°W
Report Text: KLEB 280100Z 34013G20KT 6SM -SN OVC050 M12/M17 A2976 RMK AO2 P0000 T11171167
Loading
Personal Weather Stations






























Interactive Weather Map New forecast layout! Learn more

10-Day Weather Forecast

Advertisements
Track Severe Weather on mobile